sensor_id;sensor_type;location;lat;lon;timestamp;pressure;altitude;pressure_sealevel;temperature;humidity
18755;BME280;35061;47.664;9.166;2023-07-31T00:01:25;101750.70;;;17.25;65.58
18755;BME280;35061;47.664;9.166;2023-07-31T00:03:53;101750.70;;;17.25;65.62
18755;BME280;35061;47.664;9.166;2023-07-31T00:06:21;101742.53;;;17.23;65.74
18755;BME280;35061;47.664;9.166;2023-07-31T00:08:49;101744.39;;;17.21;65.73
18755;BME280;35061;47.664;9.166;2023-07-31T00:11:17;101747.80;;;17.19;65.77
18755;BME280;35061;47.664;9.166;2023-07-31T00:13:45;101744.91;;;17.19;65.85
18755;BME280;35061;47.664;9.166;2023-07-31T00:16:13;101744.33;;;17.15;65.93
18755;BME280;35061;47.664;9.166;2023-07-31T00:18:41;101738.28;;;17.13;66.04
18755;BME280;35061;47.664;9.166;2023-07-31T00:21:09;101739.33;;;17.10;66.21
18755;BME280;35061;47.664;9.166;2023-07-31T00:23:37;101740.14;;;17.10;66.46
18755;BME280;35061;47.664;9.166;2023-07-31T00:26:05;101754.59;;;17.10;66.83
18755;BME280;35061;47.664;9.166;2023-07-31T00:28:33;101742.73;;;17.08;66.86
18755;BME280;35061;47.664;9.166;2023-07-31T00:31:01;101739.55;;;17.06;66.85
18755;BME280;35061;47.664;9.166;2023-07-31T00:33:31;101741.95;;;17.02;66.90
18755;BME280;35061;47.664;9.166;2023-07-31T00:35:59;101736.64;;;17.00;66.94
18755;BME280;35061;47.664;9.166;2023-07-31T00:38:27;101742.92;;;16.99;67.06
18755;BME280;35061;47.664;9.166;2023-07-31T00:40:55;101744.76;;;16.96;67.28
18755;BME280;35061;47.664;9.166;2023-07-31T00:43:24;101744.20;;;16.92;67.54
18755;BME280;35061;47.664;9.166;2023-07-31T00:45:52;101743.38;;;16.86;68.02
18755;BME280;35061;47.664;9.166;2023-07-31T00:48:21;101749.40;;;16.82;68.11
18755;BME280;35061;47.664;9.166;2023-07-31T00:50:49;101745.44;;;16.80;68.19
18755;BME280;35061;47.664;9.166;2023-07-31T00:53:18;101738.57;;;16.77;68.27
18755;BME280;35061;47.664;9.166;2023-07-31T00:55:46;101742.50;;;16.74;68.53
18755;BME280;35061;47.664;9.166;2023-07-31T00:58:14;101731.45;;;16.72;68.55
18755;BME280;35061;47.664;9.166;2023-07-31T01:00:42;101748.02;;;16.72;68.67
18755;BME280;35061;47.664;9.166;2023-07-31T01:03:11;101738.28;;;16.69;69.04
18755;BME280;35061;47.664;9.166;2023-07-31T01:08:34;101727.75;;;16.66;69.26
18755;BME280;35061;47.664;9.166;2023-07-31T01:12:11;101731.12;;;16.65;69.28
18755;BME280;35061;47.664;9.166;2023-07-31T01:14:18;101735.56;;;16.60;69.60
18755;BME280;35061;47.664;9.166;2023-07-31T01:16:46;101728.73;;;16.57;69.21
18755;BME280;35061;47.664;9.166;2023-07-31T01:19:15;101730.56;;;16.55;69.28
18755;BME280;35061;47.664;9.166;2023-07-31T01:24:56;101729.19;;;16.50;69.80
18755;BME280;35061;47.664;9.166;2023-07-31T01:27:31;101718.13;;;16.49;69.90
18755;BME280;35061;47.664;9.166;2023-07-31T01:30:08;101713.66;;;16.48;69.64
18755;BME280;35061;47.664;9.166;2023-07-31T01:32:42;101713.66;;;16.48;69.65
18755;BME280;35061;47.664;9.166;2023-07-31T01:35:11;101718.66;;;16.47;69.77
18755;BME280;35061;47.664;9.166;2023-07-31T01:37:39;101713.62;;;16.42;70.20
18755;BME280;35061;47.664;9.166;2023-07-31T01:40:08;101715.20;;;16.43;70.17
18755;BME280;35061;47.664;9.166;2023-07-31T01:42:36;101709.96;;;16.41;70.20
18755;BME280;35061;47.664;9.166;2023-07-31T01:45:04;101704.44;;;16.43;70.16
18755;BME280;35061;47.664;9.166;2023-07-31T01:47:32;101703.65;;;16.43;70.37
18755;BME280;35061;47.664;9.166;2023-07-31T01:50:00;101709.96;;;16.41;70.31
18755;BME280;35061;47.664;9.166;2023-07-31T01:52:28;101704.70;;;16.40;70.33
18755;BME280;35061;47.664;9.166;2023-07-31T01:54:57;101703.36;;;16.41;70.25
18755;BME280;35061;47.664;9.166;2023-07-31T01:57:26;101713.36;;;16.40;70.37
18755;BME280;35061;47.664;9.166;2023-07-31T01:59:53;101700.48;;;16.41;70.40
18755;BME280;35061;47.664;9.166;2023-07-31T02:02:22;101696.29;;;16.42;70.65
18755;BME280;35061;47.664;9.166;2023-07-31T02:04:50;101689.20;;;16.43;70.65
18755;BME280;35061;47.664;9.166;2023-07-31T02:07:18;101677.13;;;16.44;70.50
18755;BME280;35061;47.664;9.166;2023-07-31T02:09:46;101689.46;;;16.45;70.52
18755;BME280;35061;47.664;9.166;2023-07-31T02:12:15;101686.29;;;16.43;70.54
18755;BME280;35061;47.664;9.166;2023-07-31T02:14:43;101690.51;;;16.42;70.45
18755;BME280;35061;47.664;9.166;2023-07-31T02:17:11;101685.53;;;16.42;70.37
18755;BME280;35061;47.664;9.166;2023-07-31T02:19:39;101688.12;;;16.40;70.58
18755;BME280;35061;47.664;9.166;2023-07-31T02:22:07;101683.38;;;16.37;70.62
18755;BME280;35061;47.664;9.166;2023-07-31T02:24:35;101685.77;;;16.39;70.59
18755;BME280;35061;47.664;9.166;2023-07-31T02:27:03;101682.59;;;16.37;70.70
18755;BME280;35061;47.664;9.166;2023-07-31T02:29:31;101673.41;;;16.38;70.59
18755;BME280;35061;47.664;9.166;2023-07-31T02:31:59;101672.62;;;16.38;71.72
18755;BME280;35061;47.664;9.166;2023-07-31T02:34:27;101664.21;;;16.40;70.85
18755;BME280;35061;47.664;9.166;2023-07-31T02:36:56;101660.84;;;16.47;70.60
18755;BME280;35061;47.664;9.166;2023-07-31T02:39:23;101665.33;;;16.48;70.50
18755;BME280;35061;47.664;9.166;2023-07-31T02:41:51;101669.80;;;16.49;70.37
18755;BME280;35061;47.664;9.166;2023-07-31T02:44:19;101665.59;;;16.50;70.03
18755;BME280;35061;47.664;9.166;2023-07-31T02:46:48;101658.75;;;16.48;70.31
18755;BME280;35061;47.664;9.166;2023-07-31T02:49:17;101662.45;;;16.48;70.04
18755;BME280;35061;47.664;9.166;2023-07-31T02:51:44;101651.40;;;16.46;70.28
18755;BME280;35061;47.664;9.166;2023-07-31T02:54:12;101660.06;;;16.46;70.06
18755;BME280;35061;47.664;9.166;2023-07-31T02:56:40;101651.40;;;16.46;70.00
18755;BME280;35061;47.664;9.166;2023-07-31T02:59:09;101651.40;;;16.46;69.93
18755;BME280;35061;47.664;9.166;2023-07-31T03:01:37;101661.37;;;16.45;70.00
18755;BME280;35061;47.664;9.166;2023-07-31T03:04:06;101663.76;;;16.47;70.11
18755;BME280;35061;47.664;9.166;2023-07-31T03:06:35;101665.55;;;16.44;70.36
18755;BME280;35061;47.664;9.166;2023-07-31T03:09:03;101672.91;;;16.45;70.28
18755;BME280;35061;47.664;9.166;2023-07-31T03:11:31;101676.58;;;16.46;70.15
18755;BME280;35061;47.664;9.166;2023-07-31T03:13:59;101675.01;;;16.45;69.92
18755;BME280;35061;47.664;9.166;2023-07-31T03:16:27;101672.91;;;16.45;70.08
18755;BME280;35061;47.664;9.166;2023-07-31T03:18:55;101677.95;;;16.51;69.47
18755;BME280;35061;47.664;9.166;2023-07-31T03:21:23;101665.33;;;16.48;69.74
18755;BME280;35061;47.664;9.166;2023-07-31T03:23:51;101668.73;;;16.46;69.33
18755;BME280;35061;47.664;9.166;2023-07-31T03:26:19;101672.98;;;16.51;69.62
18755;BME280;35061;47.664;9.166;2023-07-31T03:28:47;101667.45;;;16.53;69.55
18755;BME280;35061;47.664;9.166;2023-07-31T03:31:17;101671.63;;;16.52;69.53
18755;BME280;35061;47.664;9.166;2023-07-31T03:33:45;101670.59;;;16.50;69.44
18755;BME280;35061;47.664;9.166;2023-07-31T03:36:13;101666.11;;;16.49;69.43
18755;BME280;35061;47.664;9.166;2023-07-31T03:38:41;101667.16;;;16.45;69.38
18755;BME280;35061;47.664;9.166;2023-07-31T03:41:09;101670.52;;;16.44;69.41
18755;BME280;35061;47.664;9.166;2023-07-31T03:43:38;101668.95;;;16.43;69.27
18755;BME280;35061;47.664;9.166;2023-07-31T03:46:06;101669.48;;;16.41;69.15
18755;BME280;35061;47.664;9.166;2023-07-31T03:48:34;101661.59;;;16.42;69.08
18755;BME280;35061;47.664;9.166;2023-07-31T03:51:02;101664.48;;;16.42;69.20
18755;BME280;35061;47.664;9.166;2023-07-31T03:53:30;101667.62;;;16.38;69.15
18755;BME280;35061;47.664;9.166;2023-07-31T03:55:58;101669.19;;;16.39;69.07
18755;BME280;35061;47.664;9.166;2023-07-31T03:58:26;101658.95;;;16.38;69.01
18755;BME280;35061;47.664;9.166;2023-07-31T04:00:54;101661.56;;;16.36;69.01
18755;BME280;35061;47.664;9.166;2023-07-31T04:03:22;101669.19;;;16.39;68.87
18755;BME280;35061;47.664;9.166;2023-07-31T04:05:50;101667.38;;;16.42;68.82
18755;BME280;35061;47.664;9.166;2023-07-31T04:08:18;101673.17;;;16.42;68.02
18755;BME280;35061;47.664;9.166;2023-07-31T04:10:46;101677.91;;;16.45;68.20
18755;BME280;35061;47.664;9.166;2023-07-31T04:13:15;101680.30;;;16.46;68.03
18755;BME280;35061;47.664;9.166;2023-07-31T04:15:48;101686.61;;;16.51;67.96
18755;BME280;35061;47.664;9.166;2023-07-31T04:18:16;101684.29;;;16.55;67.66
18755;BME280;35061;47.664;9.166;2023-07-31T04:20:44;101680.86;;;16.56;67.57
18755;BME280;35061;47.664;9.166;2023-07-31T04:23:12;101685.11;;;16.61;67.36
18755;BME280;35061;47.664;9.166;2023-07-31T04:25:40;101686.45;;;16.66;67.31
18755;BME280;35061;47.664;9.166;2023-07-31T04:28:08;101692.27;;;16.71;67.37
18755;BME280;35061;47.664;9.166;2023-07-31T04:30:38;101690.44;;;16.74;67.27
18755;BME280;35061;47.664;9.166;2023-07-31T04:33:07;101696.75;;;16.72;67.17
18755;BME280;35061;47.664;9.166;2023-07-31T04:35:35;101699.14;;;16.74;66.87
18755;BME280;35061;47.664;9.166;2023-07-31T04:38:03;101687.56;;;16.74;66.88
18755;BME280;35061;47.664;9.166;2023-07-31T04:40:31;101684.95;;;16.76;66.81
18755;BME280;35061;47.664;9.166;2023-07-31T04:42:59;101682.33;;;16.78;66.58
18755;BME280;35061;47.664;9.166;2023-07-31T04:45:27;101683.93;;;16.79;66.56
18755;BME280;35061;47.664;9.166;2023-07-31T04:47:55;101684.98;;;16.82;66.45
18755;BME280;35061;47.664;9.166;2023-07-31T04:50:23;101681.84;;;16.85;66.46
18755;BME280;35061;47.664;9.166;2023-07-31T04:52:51;101687.89;;;16.87;66.33
18755;BME280;35061;47.664;9.166;2023-07-31T04:55:19;101694.46;;;16.88;66.32
18755;BME280;35061;47.664;9.166;2023-07-31T04:57:47;101683.96;;;16.91;66.50
18755;BME280;35061;47.664;9.166;2023-07-31T05:00:15;101685.01;;;16.93;66.41
18755;BME280;35061;47.664;9.166;2023-07-31T05:02:43;101688.22;;;16.95;66.10
18755;BME280;35061;47.664;9.166;2023-07-31T05:05:11;101692.14;;;16.98;66.00
18755;BME280;35061;47.664;9.166;2023-07-31T05:07:39;101692.47;;;17.00;65.83
18755;BME280;35061;47.664;9.166;2023-07-31T05:10:08;101687.17;;;16.98;65.56
18755;BME280;35061;47.664;9.166;2023-07-31T05:12:36;101692.73;;;17.02;65.50
18755;BME280;35061;47.664;9.166;2023-07-31T05:15:05;101685.11;;;17.05;65.58
18755;BME280;35061;47.664;9.166;2023-07-31T05:17:33;101684.84;;;17.08;65.58
18755;BME280;35061;47.664;9.166;2023-07-31T05:20:01;101681.45;;;17.10;65.12
18755;BME280;35061;47.664;9.166;2023-07-31T05:22:29;101684.09;;;17.13;65.43
18755;BME280;35061;47.664;9.166;2023-07-31T05:24:57;101695.45;;;17.17;65.30
18755;BME280;35061;47.664;9.166;2023-07-31T05:27:25;101684.65;;;17.18;65.24
18755;BME280;35061;47.664;9.166;2023-07-31T05:29:53;101685.70;;;17.14;65.16
18755;BME280;35061;47.664;9.166;2023-07-31T05:32:21;101681.22;;;17.13;65.35
18755;BME280;35061;47.664;9.166;2023-07-31T05:34:53;101686.74;;;17.17;65.45
18755;BME280;35061;47.664;9.166;2023-07-31T05:37:21;101687.79;;;17.20;65.60
18755;BME280;35061;47.664;9.166;2023-07-31T05:39:49;101687.53;;;17.18;65.84
18755;BME280;35061;47.664;9.166;2023-07-31T05:42:18;101679.42;;;17.22;65.96
18755;BME280;35061;47.664;9.166;2023-07-31T05:44:46;101694.43;;;17.26;65.98
18755;BME280;35061;47.664;9.166;2023-07-31T05:47:14;101699.14;;;17.23;66.15
18755;BME280;35061;47.664;9.166;2023-07-31T05:49:42;101693.88;;;17.22;66.31
18755;BME280;35061;47.664;9.166;2023-07-31T05:52:10;101693.88;;;17.22;66.38
18755;BME280;35061;47.664;9.166;2023-07-31T05:54:39;101695.21;;;17.26;66.43
18755;BME280;35061;47.664;9.166;2023-07-31T05:57:07;101691.52;;;17.26;66.40
18755;BME280;35061;47.664;9.166;2023-07-31T05:59:35;101687.56;;;17.23;66.43
18755;BME280;35061;47.664;9.166;2023-07-31T06:02:03;101685.99;;;17.22;66.50
18755;BME280;35061;47.664;9.166;2023-07-31T06:04:31;101688.34;;;17.24;66.67
18755;BME280;35061;47.664;9.166;2023-07-31T06:07:00;101693.09;;;17.27;66.81
18755;BME280;35061;47.664;9.166;2023-07-31T06:09:28;101687.56;;;17.29;66.80
18755;BME280;35061;47.664;9.166;2023-07-31T06:11:56;101707.31;;;17.30;66.85
18755;BME280;35061;47.664;9.166;2023-07-31T06:14:24;101703.62;;;17.30;66.73
18755;BME280;35061;47.664;9.166;2023-07-31T06:16:52;101700.22;;;17.32;66.89
18755;BME280;35061;47.664;9.166;2023-07-31T06:19:20;101695.51;;;17.34;66.84
18755;BME280;35061;47.664;9.166;2023-07-31T06:21:48;101694.69;;;17.34;66.88
18755;BME280;35061;47.664;9.166;2023-07-31T06:24:16;101696.03;;;17.38;66.88
18755;BME280;35061;47.664;9.166;2023-07-31T06:26:46;101691.32;;;17.41;67.23
18755;BME280;35061;47.664;9.166;2023-07-31T06:29:14;101695.02;;;17.47;67.14
18755;BME280;35061;47.664;9.166;2023-07-31T06:31:42;101697.38;;;17.49;67.04
18755;BME280;35061;47.664;9.166;2023-07-31T06:34:11;101697.93;;;17.53;66.80
18755;BME280;35061;47.664;9.166;2023-07-31T06:36:39;101703.72;;;17.53;66.72
18755;BME280;35061;47.664;9.166;2023-07-31T06:39:07;101698.71;;;17.53;66.54
18755;BME280;35061;47.664;9.166;2023-07-31T06:41:37;101702.93;;;17.58;66.55
18755;BME280;35061;47.664;9.166;2023-07-31T06:44:05;101697.14;;;17.58;66.55
18755;BME280;35061;47.664;9.166;2023-07-31T06:46:33;101702.15;;;17.57;66.22
18755;BME280;35061;47.664;9.166;2023-07-31T06:49:01;101694.76;;;17.56;66.17
18755;BME280;35061;47.664;9.166;2023-07-31T06:51:29;101690.05;;;17.59;66.25
18755;BME280;35061;47.664;9.166;2023-07-31T06:53:59;101687.17;;;17.70;66.34
18755;BME280;35061;47.664;9.166;2023-07-31T06:56:27;101690.87;;;17.77;66.46
18755;BME280;35061;47.664;9.166;2023-07-31T06:58:55;101691.13;;;17.79;66.42
18755;BME280;35061;47.664;9.166;2023-07-31T07:01:23;101692.96;;;17.82;66.26
18755;BME280;35061;47.664;9.166;2023-07-31T07:03:52;101684.84;;;17.86;66.03
18755;BME280;35061;47.664;9.166;2023-07-31T07:06:22;101686.41;;;17.93;65.90
18755;BME280;35061;47.664;9.166;2023-07-31T07:08:50;101692.20;;;17.93;65.57
18755;BME280;35061;47.664;9.166;2023-07-31T07:11:18;101689.06;;;17.91;64.51
18755;BME280;35061;47.664;9.166;2023-07-31T07:13:46;101688.51;;;17.92;64.64
18755;BME280;35061;47.664;9.166;2023-07-31T07:16:14;101683.77;;;17.95;64.60
18755;BME280;35061;47.664;9.166;2023-07-31T07:18:42;101674.84;;;17.98;64.48
18755;BME280;35061;47.664;9.166;2023-07-31T07:21:29;101660.35;;;18.04;64.29
18755;BME280;35061;47.664;9.166;2023-07-31T07:23:57;101651.66;;;18.16;64.24
18755;BME280;35061;47.664;9.166;2023-07-31T07:26:25;101651.13;;;18.23;64.04
18755;BME280;35061;47.664;9.166;2023-07-31T07:28:53;101658.52;;;18.30;63.61
18755;BME280;35061;47.664;9.166;2023-07-31T07:31:21;101647.18;;;18.32;63.42
18755;BME280;35061;47.664;9.166;2023-07-31T07:33:49;101645.09;;;18.38;63.49
18755;BME280;35061;47.664;9.166;2023-07-31T07:36:17;101648.98;;;18.46;63.49
18755;BME280;35061;47.664;9.166;2023-07-31T07:38:45;101650.84;;;18.55;63.31
18755;BME280;35061;47.664;9.166;2023-07-31T07:41:13;101653.45;;;18.59;63.05
18755;BME280;35061;47.664;9.166;2023-07-31T07:43:41;101641.84;;;18.64;63.02
18755;BME280;35061;47.664;9.166;2023-07-31T07:46:09;101639.69;;;18.71;62.56
18755;BME280;35061;47.664;9.166;2023-07-31T07:48:37;101653.13;;;18.74;61.98
18755;BME280;35061;47.664;9.166;2023-07-31T07:51:05;101661.04;;;18.79;61.88
18755;BME280;35061;47.664;9.166;2023-07-31T07:53:33;101656.01;;;18.79;61.48
18755;BME280;35061;47.664;9.166;2023-07-31T07:56:01;101670.27;;;18.83;61.37
18755;BME280;35061;47.664;9.166;2023-07-31T07:58:28;101672.39;;;18.82;61.24
18755;BME280;35061;47.664;9.166;2023-07-31T08:00:56;101661.04;;;18.79;60.95
18755;BME280;35061;47.664;9.166;2023-07-31T08:03:25;101660.78;;;18.82;60.83
18755;BME280;35061;47.664;9.166;2023-07-31T08:05:58;101655.48;;;18.87;60.81
18755;BME280;35061;47.664;9.166;2023-07-31T08:08:26;101649.92;;;18.89;60.59
18755;BME280;35061;47.664;9.166;2023-07-31T08:10:54;101649.92;;;18.89;60.47
18755;BME280;35061;47.664;9.166;2023-07-31T08:13:22;101665.75;;;18.88;60.44
18755;BME280;35061;47.664;9.166;2023-07-31T08:15:50;101665.00;;;18.87;60.60
18755;BME280;35061;47.664;9.166;2023-07-31T08:18:18;101666.83;;;18.85;60.31
18755;BME280;35061;47.664;9.166;2023-07-31T08:20:46;101655.48;;;18.87;60.04
18755;BME280;35061;47.664;9.166;2023-07-31T08:23:15;101655.71;;;18.89;59.80
18755;BME280;35061;47.664;9.166;2023-07-31T08:25:43;101645.97;;;18.92;59.70
18755;BME280;35061;47.664;9.166;2023-07-31T08:28:11;101639.59;;;18.99;59.71
18755;BME280;35061;47.664;9.166;2023-07-31T08:30:39;101645.97;;;19.03;59.16
18755;BME280;35061;47.664;9.166;2023-07-31T08:33:07;101632.46;;;19.06;58.96
18755;BME280;35061;47.664;9.166;2023-07-31T08:35:36;101648.29;;;19.10;59.03
18755;BME280;35061;47.664;9.166;2023-07-31T08:38:04;101646.16;;;19.11;59.03
18755;BME280;35061;47.664;9.166;2023-07-31T08:40:32;101645.34;;;19.16;59.06
18755;BME280;35061;47.664;9.166;2023-07-31T08:43:03;101643.74;;;19.21;59.30
18755;BME280;35061;47.664;9.166;2023-07-31T08:45:32;101637.89;;;19.27;59.69
18755;BME280;35061;47.664;9.166;2023-07-31T08:48:00;101632.07;;;19.32;59.93
18755;BME280;35061;47.664;9.166;2023-07-31T08:50:28;101622.78;;;19.39;60.05
18755;BME280;35061;47.664;9.166;2023-07-31T08:52:56;101630.70;;;19.45;59.65
18755;BME280;35061;47.664;9.166;2023-07-31T08:55:25;101613.79;;;19.43;59.23
18755;BME280;35061;47.664;9.166;2023-07-31T08:57:54;101609.80;;;19.46;59.36
18755;BME280;35061;47.664;9.166;2023-07-31T09:00:24;101616.63;;;19.55;59.18
18755;BME280;35061;47.664;9.166;2023-07-31T09:03:08;101615.06;;;19.53;58.65
18755;BME280;35061;47.664;9.166;2023-07-31T09:05:38;101602.64;;;19.53;58.33
18755;BME280;35061;47.664;9.166;2023-07-31T09:08:11;101603.16;;;19.57;58.52
18755;BME280;35061;47.664;9.166;2023-07-31T09:10:43;101606.83;;;19.58;58.61
18755;BME280;35061;47.664;9.166;2023-07-31T09:13:14;101593.38;;;19.55;58.89
18755;BME280;35061;47.664;9.166;2023-07-31T09:15:45;101593.09;;;19.58;59.12
18755;BME280;35061;47.664;9.166;2023-07-31T09:18:14;101582.20;;;19.64;59.24
18755;BME280;35061;47.664;9.166;2023-07-31T09:21:00;101582.95;;;19.71;58.22
18755;BME280;35061;47.664;9.166;2023-07-31T09:23:49;101577.07;;;19.82;58.19
18755;BME280;35061;47.664;9.166;2023-07-31T09:26:35;101583.05;;;19.96;58.10
18755;BME280;35061;47.664;9.166;2023-07-31T09:29:05;101591.16;;;20.03;56.05
18755;BME280;35061;47.664;9.166;2023-07-31T09:31:41;101585.83;;;20.07;56.23
18755;BME280;35061;47.664;9.166;2023-07-31T09:34:09;101578.08;;;20.15;55.58
18755;BME280;35061;47.664;9.166;2023-07-31T09:36:43;101578.28;;;20.23;55.28
18755;BME280;35061;47.664;9.166;2023-07-31T09:39:13;101586.09;;;20.34;55.12
18755;BME280;35061;47.664;9.166;2023-07-31T09:41:47;101582.10;;;20.37;54.98
18755;BME280;35061;47.664;9.166;2023-07-31T09:44:15;101580.96;;;20.46;55.10
18755;BME280;35061;47.664;9.166;2023-07-31T09:46:43;101583.61;;;20.44;53.79
18755;BME280;35061;47.664;9.166;2023-07-31T09:49:13;101575.37;;;20.48;54.14
18755;BME280;35061;47.664;9.166;2023-07-31T09:51:42;101580.89;;;20.52;54.16
18755;BME280;35061;47.664;9.166;2023-07-31T09:54:14;101582.92;;;20.57;54.47
18755;BME280;35061;47.664;9.166;2023-07-31T09:56:44;101572.03;;;20.63;54.47
18755;BME280;35061;47.664;9.166;2023-07-31T09:59:15;101568.83;;;20.67;54.07
18755;BME280;35061;47.664;9.166;2023-07-31T10:01:48;101563.17;;;20.74;54.44
18755;BME280;35061;47.664;9.166;2023-07-31T10:04:17;101555.06;;;20.86;54.72
18755;BME280;35061;47.664;9.166;2023-07-31T10:06:50;101552.80;;;20.98;54.72
18755;BME280;35061;47.664;9.166;2023-07-31T10:09:21;101542.90;;;21.07;53.86
18755;BME280;35061;47.664;9.166;2023-07-31T10:11:59;101537.47;;;21.17;54.12
18755;BME280;35061;47.664;9.166;2023-07-31T10:14:28;101534.46;;;21.23;53.78
18755;BME280;35061;47.664;9.166;2023-07-31T10:16:57;101551.40;;;21.24;52.80
18755;BME280;35061;47.664;9.166;2023-07-31T10:19:27;101545.80;;;21.26;52.77
18755;BME280;35061;47.664;9.166;2023-07-31T10:21:57;101547.51;;;21.35;52.58
18755;BME280;35061;47.664;9.166;2023-07-31T10:24:26;101542.93;;;21.40;51.16
18755;BME280;35061;47.664;9.166;2023-07-31T10:26:57;101525.47;;;21.40;51.00
18755;BME280;35061;47.664;9.166;2023-07-31T10:29:26;101524.09;;;21.41;50.59
18755;BME280;35061;47.664;9.166;2023-07-31T10:31:58;101517.42;;;21.46;50.94
18755;BME280;35061;47.664;9.166;2023-07-31T10:34:27;101506.99;;;21.51;50.91
18755;BME280;35061;47.664;9.166;2023-07-31T10:37:24;101516.84;;;21.47;50.86
18755;BME280;35061;47.664;9.166;2023-07-31T10:42:44;101497.48;;;21.50;50.72
18755;BME280;35061;47.664;9.166;2023-07-31T10:45:13;101484.59;;;21.59;51.68
18755;BME280;35061;47.664;9.166;2023-07-31T10:47:45;101481.59;;;21.65;51.64
18755;BME280;35061;47.664;9.166;2023-07-31T10:50:19;101480.18;;;21.71;51.31
18755;BME280;35061;47.664;9.166;2023-07-31T10:52:50;101471.31;;;21.77;51.51
18755;BME280;35061;47.664;9.166;2023-07-31T10:55:25;101457.45;;;21.83;51.64
18755;BME280;35061;47.664;9.166;2023-07-31T10:58:04;101451.40;;;21.95;51.56
18755;BME280;35061;47.664;9.166;2023-07-31T11:00:33;101452.52;;;22.05;51.63
18755;BME280;35061;47.664;9.166;2023-07-31T11:03:05;101459.45;;;22.15;51.45
18755;BME280;35061;47.664;9.166;2023-07-31T11:05:52;101444.53;;;22.19;49.86
18755;BME280;35061;47.664;9.166;2023-07-31T11:08:33;101434.23;;;22.18;49.39
18755;BME280;35061;47.664;9.166;2023-07-31T11:13:39;101427.59;;;22.31;49.79
18755;BME280;35061;47.664;9.166;2023-07-31T11:16:09;101428.02;;;22.35;48.53
18755;BME280;35061;47.664;9.166;2023-07-31T11:18:39;101407.68;;;22.43;48.73
18755;BME280;35061;47.664;9.166;2023-07-31T11:21:11;101410.72;;;22.51;48.73
18755;BME280;35061;47.664;9.166;2023-07-31T11:23:40;101404.64;;;22.62;48.71
18755;BME280;35061;47.664;9.166;2023-07-31T11:26:08;101406.30;;;22.71;48.15
18755;BME280;35061;47.664;9.166;2023-07-31T11:28:36;101412.91;;;22.71;46.34
18755;BME280;35061;47.664;9.166;2023-07-31T11:31:09;101408.76;;;22.67;46.07
18755;BME280;35061;47.664;9.166;2023-07-31T11:33:37;101394.11;;;22.59;46.60
18755;BME280;35061;47.664;9.166;2023-07-31T11:36:05;101396.47;;;22.61;46.86
18755;BME280;35061;47.664;9.166;2023-07-31T11:38:33;101406.34;;;22.57;46.71
18755;BME280;35061;47.664;9.166;2023-07-31T11:41:04;101408.40;;;22.49;46.65
18755;BME280;35061;47.664;9.166;2023-07-31T11:43:32;101407.81;;;22.51;46.94
18755;BME280;35061;47.664;9.166;2023-07-31T11:46:00;101401.08;;;22.56;47.34
18755;BME280;35061;47.664;9.166;2023-07-31T11:48:35;101406.21;;;22.63;47.65
18755;BME280;35061;47.664;9.166;2023-07-31T11:51:05;101402.71;;;22.65;47.48
18755;BME280;35061;47.664;9.166;2023-07-31T11:53:38;101403.73;;;22.67;47.72
18755;BME280;35061;47.664;9.166;2023-07-31T11:56:10;101403.73;;;22.67;46.15
18755;BME280;35061;47.664;9.166;2023-07-31T11:58:40;101396.34;;;22.66;46.99
18755;BME280;35061;47.664;9.166;2023-07-31T12:01:11;101400.81;;;22.67;46.87
18755;BME280;35061;47.664;9.166;2023-07-31T12:03:43;101398.59;;;22.60;45.56
18755;BME280;35061;47.664;9.166;2023-07-31T12:06:12;101401.50;;;22.60;46.57
18755;BME280;35061;47.664;9.166;2023-07-31T12:08:40;101395.52;;;22.66;46.56
18755;BME280;35061;47.664;9.166;2023-07-31T12:11:09;101394.18;;;22.67;46.28
18755;BME280;35061;47.664;9.166;2023-07-31T12:13:45;101388.32;;;22.67;46.06
18755;BME280;35061;47.664;9.166;2023-07-31T12:16:13;101382.50;;;22.67;45.90
18755;BME280;35061;47.664;9.166;2023-07-31T12:18:41;101387.21;;;22.70;46.21
18755;BME280;35061;47.664;9.166;2023-07-31T12:21:09;101381.81;;;22.74;46.50
18755;BME280;35061;47.664;9.166;2023-07-31T12:23:39;101378.31;;;22.76;46.61
18755;BME280;35061;47.664;9.166;2023-07-31T12:26:11;101372.49;;;22.76;46.65
18755;BME280;35061;47.664;9.166;2023-07-31T12:28:44;101364.09;;;22.72;46.87
18755;BME280;35061;47.664;9.166;2023-07-31T12:31:14;101363.54;;;22.74;47.04
18755;BME280;35061;47.664;9.166;2023-07-31T12:33:46;101354.77;;;22.74;47.09
18755;BME280;35061;47.664;9.166;2023-07-31T12:36:19;101350.91;;;22.79;47.52
18755;BME280;35061;47.664;9.166;2023-07-31T12:38:48;101339.96;;;22.93;46.54
18755;BME280;35061;47.664;9.166;2023-07-31T12:41:17;101334.59;;;23.05;45.93
18755;BME280;35061;47.664;9.166;2023-07-31T12:43:45;101334.30;;;23.16;44.56
18755;BME280;35061;47.664;9.166;2023-07-31T12:46:13;101338.06;;;23.24;42.32
18755;BME280;35061;47.664;9.166;2023-07-31T12:48:42;101332.90;;;23.31;43.07
18755;BME280;35061;47.664;9.166;2023-07-31T12:51:10;101329.23;;;23.38;42.97
18755;BME280;35061;47.664;9.166;2023-07-31T12:53:38;101337.70;;;23.49;43.99
18755;BME280;35061;47.664;9.166;2023-07-31T12:56:06;101326.98;;;23.52;43.92
18755;BME280;35061;47.664;9.166;2023-07-31T12:58:34;101324.85;;;23.52;43.40
18755;BME280;35061;47.664;9.166;2023-07-31T13:01:02;101317.27;;;23.57;43.84
18755;BME280;35061;47.664;9.166;2023-07-31T13:03:30;101312.82;;;23.64;43.26
18755;BME280;35061;47.664;9.166;2023-07-31T13:05:58;101312.13;;;23.79;43.56
18755;BME280;35061;47.664;9.166;2023-07-31T13:08:26;101299.54;;;23.92;42.68
18755;BME280;35061;47.664;9.166;2023-07-31T13:10:54;101302.68;;;24.02;43.19
18755;BME280;35061;47.664;9.166;2023-07-31T13:13:22;101298.07;;;24.14;43.02